Time;durP1;ratioP1;P1;durP2;ratioP2;P2;SDS_P1;SDS_P2;PMS_P1;PMS_P2;Temp;Humidity;BMP_temperature;BMP_pressure;BME280_temperature;BME280_humidity;BME280_pressure;Samples;Min_cycle;Max_cycle;Signal;HPM_P1;HPM_P2
2022/06/02 00:00:06;;;;;;;0.98;0.85;;;17.00;45.80;;;;;;5058767;28;20133;-72
2022/06/02 00:02:44;;;;;;;1.15;1.00;;;17.00;46.50;;;;;;5056981;28;20522;-72
2022/06/02 00:05:29;;;;;;;1.75;0.80;;;16.90;45.70;;;;;;5048132;28;20480;-73
2022/06/02 00:08:24;;;;;;;0.68;0.63;;;16.90;45.90;;;;;;5049640;28;20041;-73
2022/06/02 00:11:02;;;;;;;0.80;0.80;;;16.80;45.90;;;;;;5061622;28;20045;-73
2022/06/02 00:14:03;;;;;;;2.42;0.90;;;16.80;45.90;;;;;;5053902;28;20554;-73
2022/06/02 00:16:58;;;;;;;1.60;1.00;;;16.70;45.90;;;;;;5068323;28;20398;-73
2022/06/02 00:19:45;;;;;;;2.50;1.10;;;16.70;45.90;;;;;;5045793;28;20124;-73
2022/06/02 00:22:22;;;;;;;1.20;1.02;;;16.60;45.90;;;;;;5061390;28;20098;-73
2022/06/02 00:25:29;;;;;;;1.27;1.00;;;16.50;45.80;;;;;;5063152;28;20044;-73
2022/06/02 00:28:16;;;;;;;0.70;0.60;;;16.40;45.80;;;;;;5050382;28;20492;-73
2022/06/02 00:30:55;;;;;;;1.98;0.90;;;16.40;45.80;;;;;;5050705;28;20029;-73
2022/06/02 00:33:31;;;;;;;2.83;1.20;;;16.40;46.00;;;;;;5051631;28;20503;-73
2022/06/02 00:36:36;;;;;;;2.70;0.70;;;16.30;45.80;;;;;;5054237;28;20024;-73
2022/06/02 00:39:03;;;;;;;2.00;0.90;;;16.30;46.10;;;;;;5027726;28;20484;-73
2022/06/02 00:41:53;;;;;;;1.55;0.90;;;16.20;45.80;;;;;;5068026;28;20042;-73
2022/06/02 00:44:35;;;;;;;1.45;1.10;;;16.20;46.10;;;;;;5063752;28;20041;-73
2022/06/02 00:47:28;;;;;;;0.95;0.70;;;16.20;46.20;;;;;;5060866;28;20136;-72
2022/06/02 00:50:19;;;;;;;1.00;0.90;;;16.10;46.20;;;;;;5005559;28;20041;-73
2022/06/02 00:52:59;;;;;;;1.52;1.10;;;16.00;46.10;;;;;;5036795;28;20438;-73
2022/06/02 00:59:12;;;;;;;2.78;1.02;;;16.00;46.20;;;;;;5034766;28;20570;-73
2022/06/02 01:01:38;;;;;;;1.48;1.05;;;15.90;46.20;;;;;;5052778;28;20136;-73
2022/06/02 01:04:09;;;;;;;0.82;0.73;;;15.90;46.10;;;;;;5065914;28;20098;-73
2022/06/02 01:06:44;;;;;;;2.35;0.98;;;15.80;46.10;;;;;;5068079;28;20228;-72
2022/06/02 01:09:38;;;;;;;1.48;0.82;;;15.80;46.30;;;;;;5055866;28;20025;-73
2022/06/02 01:12:12;;;;;;;2.08;1.15;;;15.80;46.40;;;;;;5053985;28;20033;-73
2022/06/02 01:14:55;;;;;;;1.70;1.20;;;15.80;46.40;;;;;;5032565;28;20036;-73
2022/06/02 01:17:33;;;;;;;1.77;1.00;;;15.70;46.30;;;;;;5041310;28;20036;-73
2022/06/02 01:20:02;;;;;;;3.15;1.15;;;15.70;46.40;;;;;;5047153;28;20025;-73
2022/06/02 01:22:45;;;;;;;1.70;0.90;;;15.70;46.40;;;;;;5047269;28;20025;-73
2022/06/02 01:25:23;;;;;;;2.13;1.38;;;15.60;46.50;;;;;;5035175;28;20025;-73
2022/06/02 01:28:22;;;;;;;2.35;1.10;;;15.60;46.40;;;;;;5015832;28;20059;-73
2022/06/02 01:31:21;;;;;;;1.85;1.10;;;15.50;46.40;;;;;;5028462;28;20440;-73
2022/06/02 01:34:09;;;;;;;2.08;1.13;;;15.50;46.50;;;;;;5000866;28;20045;-73
2022/06/02 01:37:04;;;;;;;1.98;1.20;;;15.40;46.20;;;;;;5016521;28;20033;-73
2022/06/02 01:40:00;;;;;;;2.08;1.52;;;15.40;46.50;;;;;;5045954;28;20058;-73
2022/06/02 01:42:56;;;;;;;2.33;1.45;;;15.30;46.40;;;;;;5042707;28;20036;-73
2022/06/02 01:45:37;;;;;;;1.83;1.05;;;15.30;46.50;;;;;;5040566;28;20044;-74
2022/06/02 01:48:21;;;;;;;3.13;1.38;;;15.30;46.50;;;;;;5026933;28;20079;-73
2022/06/02 01:50:50;;;;;;;;;;;15.20;46.40;;;;;;5047657;28;20048;-74
2022/06/02 01:53:31;;;;;;;2.88;1.67;;;15.20;46.40;;;;;;5049813;28;19912;-73
2022/06/02 01:56:20;;;;;;;1.75;1.65;;;15.20;46.20;;;;;;5055792;28;20028;-73
2022/06/02 01:58:56;;;;;;;5.28;2.30;;;15.10;46.30;;;;;;5068960;28;20035;-73
2022/06/02 02:01:46;;;;;;;3.25;1.90;;;15.10;46.40;;;;;;5038086;28;20035;-74
2022/06/02 02:04:14;;;;;;;8.02;2.53;;;15.00;46.40;;;;;;5056928;28;20379;-73
2022/06/02 02:07:15;;;;;;;2.28;1.73;;;15.00;46.40;;;;;;5049662;28;20199;-73
2022/06/02 02:10:01;;;;;;;3.75;2.03;;;15.00;46.70;;;;;;5041434;28;20049;-74
2022/06/02 02:13:04;;;;;;;2.13;1.52;;;14.90;46.50;;;;;;5058848;28;20035;-74
2022/06/02 02:16:09;;;;;;;2.83;1.80;;;14.90;46.60;;;;;;5038703;28;20043;-71
2022/06/02 02:18:50;;;;;;;3.40;1.83;;;14.90;46.70;;;;;;5049208;28;20036;-73
2022/06/02 02:21:52;;;;;;;3.88;2.35;;;14.80;46.60;;;;;;5048369;28;20040;-73
2022/06/02 02:24:26;;;;;;;2.60;1.80;;;14.80;46.70;;;;;;5053393;28;20040;-73
2022/06/02 02:27:06;;;;;;;2.38;2.17;;;14.70;46.50;;;;;;5049982;28;20070;-73
2022/06/02 02:30:02;;;;;;;3.17;1.73;;;14.70;47.20;;;;;;5067412;28;20483;-73
2022/06/02 02:32:49;;;;;;;2.85;2.40;;;14.70;46.90;;;;;;5044862;28;20081;-73
2022/06/02 02:35:27;;;;;;;4.18;1.95;;;14.70;46.80;;;;;;5065844;28;20145;-73
2022/06/02 02:38:12;;;;;;;3.40;1.73;;;14.60;46.70;;;;;;5065888;28;20031;-74
2022/06/02 02:40:51;;;;;;;3.47;2.30;;;14.60;46.90;;;;;;5047151;28;20051;-73
2022/06/02 02:43:42;;;;;;;3.53;2.10;;;14.60;47.00;;;;;;5044571;28;20028;-73
2022/06/02 02:46:32;;;;;;;4.07;2.53;;;14.50;46.90;;;;;;5052904;28;20032;-73
2022/06/02 02:49:10;;;;;;;2.22;1.70;;;14.50;47.00;;;;;;5046558;28;20037;-74
2022/06/02 02:52:01;;;;;;;2.90;1.92;;;14.50;47.40;;;;;;5054714;28;20036;-74
2022/06/02 02:54:54;;;;;;;2.47;1.95;;;14.50;47.20;;;;;;5056169;28;20036;-74
2022/06/02 02:57:32;;;;;;;2.83;2.00;;;14.50;47.30;;;;;;5062063;28;20036;-74
2022/06/02 03:00:09;;;;;;;3.58;2.10;;;14.40;47.00;;;;;;5066600;28;20495;-74
2022/06/02 03:02:58;;;;;;;3.38;2.35;;;14.40;47.20;;;;;;5066976;28;20029;-73
2022/06/02 03:05:37;;;;;;;2.85;2.10;;;14.40;47.30;;;;;;5065186;28;20120;-73
2022/06/02 03:08:12;;;;;;;2.65;2.20;;;14.40;47.30;;;;;;5066417;28;20427;-73
2022/06/02 03:10:40;;;;;;;3.83;2.70;;;14.40;47.40;;;;;;5063472;28;20053;-73
2022/06/02 03:13:06;;;;;;;2.65;2.30;;;14.30;47.20;;;;;;5062342;28;20036;-73
2022/06/02 03:15:41;;;;;;;4.07;2.40;;;14.30;47.40;;;;;;5047502;28;20498;-74
2022/06/02 03:18:28;;;;;;;4.15;2.95;;;14.30;47.60;;;;;;5067444;28;20505;-73
2022/06/02 03:21:09;;;;;;;4.43;2.70;;;14.20;47.50;;;;;;5065647;28;20033;-73
2022/06/02 03:24:06;;;;;;;3.53;2.90;;;14.30;47.60;;;;;;5047557;28;20023;-73
2022/06/02 03:26:55;;;;;;;4.15;2.10;;;14.20;47.60;;;;;;5065501;28;20313;-73
2022/06/02 03:29:46;;;;;;;4.68;2.47;;;14.20;47.60;;;;;;5064565;28;20033;-73
2022/06/02 03:32:25;;;;;;;2.42;1.92;;;14.10;47.50;;;;;;5066509;28;20124;-73
2022/06/02 03:35:06;;;;;;;3.80;2.38;;;14.20;47.70;;;;;;5049811;28;20032;-73
2022/06/02 03:37:58;;;;;;;4.57;2.33;;;14.10;47.70;;;;;;5062614;28;20033;-73
2022/06/02 03:40:45;;;;;;;3.38;2.80;;;14.10;47.80;;;;;;5048225;28;20580;-73
2022/06/02 03:43:14;;;;;;;4.25;2.28;;;14.10;47.90;;;;;;5048104;28;20033;-73
2022/06/02 03:46:22;;;;;;;5.43;3.42;;;14.00;47.60;;;;;;5048734;28;20039;-73
2022/06/02 03:49:13;;;;;;;2.90;2.58;;;14.00;47.80;;;;;;5033659;28;20044;-73
2022/06/02 03:51:52;;;;;;;3.70;2.30;;;14.00;47.90;;;;;;5043806;28;20048;-73
2022/06/02 03:54:34;;;;;;;4.13;2.50;;;14.00;47.80;;;;;;5053702;28;20055;-73
2022/06/02 03:57:17;;;;;;;4.90;2.47;;;14.00;48.10;;;;;;5067128;28;20476;-73
2022/06/02 04:00:01;;;;;;;2.95;2.08;;;13.90;47.90;;;;;;5049934;28;20083;-73
2022/06/02 04:03:05;;;;;;;4.45;2.60;;;13.90;48.00;;;;;;5036429;28;20068;-73
2022/06/02 04:05:52;;;;;;;3.08;2.35;;;13.90;48.00;;;;;;5038017;28;20044;-73
2022/06/02 04:08:30;;;;;;;4.07;2.60;;;13.90;48.00;;;;;;5048471;28;20420;-73
2022/06/02 04:11:11;;;;;;;2.65;2.40;;;13.90;48.00;;;;;;5031690;28;20140;-73
2022/06/02 04:14:11;;;;;;;3.38;2.50;;;13.80;48.00;;;;;;5062479;28;20513;-74
2022/06/02 04:16:59;;;;;;;4.60;2.50;;;13.80;48.00;;;;;;5053726;28;20476;-74
2022/06/02 04:22:37;;;;;;;2.90;2.17;;;13.80;48.00;;;;;;5057189;28;20066;-73
2022/06/02 04:25:21;;;;;;;2.85;2.35;;;13.80;48.20;;;;;;5059789;28;20119;-73
2022/06/02 04:28:12;;;;;;;2.80;2.40;;;13.70;48.00;;;;;;5051704;28;20098;-73
2022/06/02 04:31:02;;;;;;;4.93;2.30;;;13.80;48.30;;;;;;5051147;28;20083;-73
2022/06/02 04:33:38;;;;;;;4.68;2.85;;;13.70;48.20;;;;;;5041621;28;20122;-73
2022/06/02 04:36:20;;;;;;;3.25;2.70;;;13.70;48.20;;;;;;5068860;28;20120;-73
2022/06/02 04:39:12;;;;;;;3.60;3.10;;;13.70;48.80;;;;;;5072624;28;20040;-74
2022/06/02 04:41:46;;;;;;;4.03;2.75;;;13.70;48.40;;;;;;5040810;28;20032;-73
2022/06/02 04:44:40;;;;;;;3.58;2.80;;;13.70;48.30;;;;;;5070212;28;20321;-73
2022/06/02 04:47:34;;;;;;;3.15;2.80;;;13.70;48.50;;;;;;5066102;28;20043;-73
2022/06/02 04:50:28;;;;;;;4.53;2.67;;;13.70;48.40;;;;;;5064598;28;20260;-74
2022/06/02 04:53:12;;;;;;;;;;;13.80;49.20;;;;;;5062698;28;20503;-73
2022/06/02 04:56:07;;;;;;;3.85;2.67;;;13.70;48.20;;;;;;5067185;28;19908;-73
2022/06/02 04:58:44;;;;;;;3.45;3.03;;;13.70;48.10;;;;;;5045320;28;20079;-73
2022/06/02 05:01:33;;;;;;;4.85;2.78;;;13.70;48.10;;;;;;5064324;28;20113;-74
2022/06/02 05:04:27;;;;;;;5.65;3.60;;;13.70;48.30;;;;;;5038943;28;20478;-73
2022/06/02 05:07:07;;;;;;;4.80;2.90;;;13.70;48.40;;;;;;5062696;28;20511;-75
2022/06/02 05:10:00;;;;;;;4.07;3.00;;;13.80;48.60;;;;;;5065220;28;20073;-76
2022/06/02 05:13:00;;;;;;;3.78;3.15;;;13.80;48.70;;;;;;5006653;28;20033;-76
2022/06/02 05:15:46;;;;;;;3.00;2.67;;;13.80;48.70;;;;;;5035873;28;20106;-76
2022/06/02 05:18:31;;;;;;;4.03;3.20;;;13.80;48.60;;;;;;5040666;28;20032;-76
2022/06/02 05:21:25;;;;;;;4.93;3.38;;;13.80;48.80;;;;;;5064827;28;20040;-76
2022/06/02 05:24:32;;;;;;;8.10;3.13;;;13.90;49.00;;;;;;5053007;28;20033;-76
2022/06/02 05:27:32;;;;;;;4.85;2.80;;;13.90;49.00;;;;;;5065842;28;20052;-76
2022/06/02 05:30:25;;;;;;;3.42;2.80;;;13.90;49.00;;;;;;5065219;28;20024;-75
2022/06/02 05:33:28;;;;;;;3.42;3.13;;;13.90;49.00;;;;;;5063011;28;20040;-76
2022/06/02 05:36:12;;;;;;;3.85;2.90;;;13.90;49.00;;;;;;5062394;28;20025;-76
2022/06/02 05:39:03;;;;;;;3.65;2.90;;;13.90;48.90;;;;;;5064220;28;20036;-75
2022/06/02 05:41:47;;;;;;;3.55;2.80;;;14.00;49.10;;;;;;5037888;28;20087;-75
2022/06/02 05:44:41;;;;;;;4.13;3.00;;;14.00;49.00;;;;;;5061706;28;20053;-76
2022/06/02 05:47:13;;;;;;;4.50;3.10;;;14.10;49.40;;;;;;5065031;28;20067;-76
2022/06/02 05:49:39;;;;;;;3.25;2.95;;;14.10;49.20;;;;;;5042194;28;20025;-78
2022/06/02 05:52:17;;;;;;;4.13;2.85;;;14.10;49.20;;;;;;5073378;28;20038;-75
2022/06/02 05:55:11;;;;;;;3.78;3.08;;;14.20;49.50;;;;;;5058857;28;20044;-76
2022/06/02 05:57:43;;;;;;;3.83;3.42;;;14.30;49.70;;;;;;5029142;28;20096;-75
2022/06/02 06:00:23;;;;;;;4.07;2.95;;;14.40;49.70;;;;;;5043948;28;20036;-75
2022/06/02 06:02:48;;;;;;;3.65;3.20;;;14.50;49.80;;;;;;5035788;28;20111;-75
2022/06/02 06:05:17;;;;;;;4.40;3.13;;;14.60;49.80;;;;;;5028170;28;20191;-73
2022/06/02 06:08:05;;;;;;;2.92;2.42;;;14.70;49.90;;;;;;5063727;28;20482;-75
2022/06/02 06:10:54;;;;;;;4.53;3.60;;;14.90;50.20;;;;;;5067406;28;20052;-75
2022/06/02 06:13:47;;;;;;;4.57;3.00;;;15.00;50.20;;;;;;5070996;28;20034;-75
2022/06/02 06:16:34;;;;;;;5.38;2.75;;;15.20;50.20;;;;;;5056686;28;20060;-76
2022/06/02 06:19:13;;;;;;;3.40;3.03;;;15.40;50.10;;;;;;5055755;28;20032;-75
2022/06/02 06:21:59;;;;;;;3.67;2.65;;;15.70;50.30;;;;;;5056843;28;20020;-75
2022/06/02 06:24:43;;;;;;;3.65;2.53;;;16.00;50.50;;;;;;5012413;28;20483;-75
2022/06/02 06:27:46;;;;;;;5.07;3.22;;;16.30;50.30;;;;;;5063196;28;20554;-76
2022/06/02 06:30:40;;;;;;;4.60;2.67;;;16.80;50.70;;;;;;5060067;28;20695;-74
2022/06/02 06:33:17;;;;;;;3.60;2.40;;;17.70;50.70;;;;;;5040220;28;20123;-74
2022/06/02 06:35:57;;;;;;;2.55;2.35;;;18.60;50.20;;;;;;5070394;28;20399;-76
2022/06/02 06:38:52;;;;;;;3.83;3.40;;;19.40;49.80;;;;;;5045722;28;20119;-74
2022/06/02 06:42:05;;;;;;;3.97;3.65;;;20.10;49.10;;;;;;5057960;28;20409;-75
2022/06/02 06:45:01;;;;;;;4.10;3.80;;;20.90;48.70;;;;;;5065979;28;20069;-75
2022/06/02 06:47:38;;;;;;;4.13;3.83;;;21.40;48.40;;;;;;5072515;28;20052;-73
2022/06/02 06:50:25;;;;;;;4.85;4.38;;;21.80;48.10;;;;;;5035074;28;20036;-74
2022/06/02 06:53:08;;;;;;;4.28;3.97;;;22.10;48.00;;;;;;5061787;28;20025;-74
2022/06/02 06:55:51;;;;;;;3.90;3.47;;;22.50;47.90;;;;;;5057614;28;20035;-73
2022/06/02 06:58:49;;;;;;;4.45;3.72;;;22.80;47.90;;;;;;5062493;28;20025;-74
2022/06/02 07:01:17;;;;;;;5.30;4.25;;;23.20;48.00;;;;;;5035430;28;20426;-74
2022/06/02 07:04:16;;;;;;;3.97;3.65;;;23.50;47.90;;;;;;5065938;28;20115;-76
2022/06/02 07:06:57;;;;;;;4.35;3.83;;;23.80;47.80;;;;;;5018680;28;20089;-75
2022/06/02 07:09:42;;;;;;;4.97;4.47;;;24.10;47.60;;;;;;5056578;28;20283;-75
2022/06/02 07:15:39;;;;;;;10.23;4.60;;;24.50;47.10;;;;;;5050812;28;20147;-78
2022/06/02 07:18:23;;;;;;;4.82;3.53;;;24.60;46.90;;;;;;5058858;28;20113;-76
2022/06/02 07:21:08;;;;;;;3.72;3.38;;;24.70;46.90;;;;;;5043867;28;20502;-77
2022/06/02 07:23:46;;;;;;;6.05;3.25;;;24.70;46.60;;;;;;5053684;28;20029;-77
2022/06/02 07:26:33;;;;;;;3.45;3.15;;;24.60;46.70;;;;;;5063316;28;20049;-77
2022/06/02 07:29:30;;;;;;;3.70;3.40;;;24.50;46.80;;;;;;5036202;28;20028;-78
2022/06/02 07:31:59;;;;;;;4.00;3.58;;;24.50;47.00;;;;;;5055426;28;20033;-76
2022/06/02 07:34:41;;;;;;;4.18;3.78;;;24.50;47.20;;;;;;5058368;28;20032;-76
2022/06/02 07:37:37;;;;;;;5.07;4.67;;;24.90;47.10;;;;;;5062250;28;20041;-76
2022/06/02 07:40:11;;;;;;;3.33;3.05;;;25.30;46.40;;;;;;5057924;28;20039;-78
2022/06/02 07:43:02;;;;;;;2.97;2.75;;;25.90;45.70;;;;;;5054828;28;20511;-77
2022/06/02 07:45:34;;;;;;;3.83;3.20;;;26.40;44.60;;;;;;5084298;28;20038;-78
2022/06/02 07:48:15;;;;;;;2.97;2.67;;;27.10;43.80;;;;;;5052042;28;20388;-77
2022/06/02 07:50:55;;;;;;;3.70;2.53;;;27.60;42.90;;;;;;5049212;28;20074;-78
2022/06/02 07:53:28;;;;;;;2.63;2.42;;;28.10;42.10;;;;;;5065152;28;20607;-78
2022/06/02 07:55:59;;;;;;;;;;;28.50;41.50;;;;;;5061203;28;20553;-78
2022/06/02 07:58:34;;;;;;;2.25;2.05;;;28.80;41.40;;;;;;5060269;28;20359;-78
2022/06/02 08:01:05;;;;;;;2.60;2.08;;;28.80;41.00;;;;;;5065092;28;20056;-77
2022/06/02 08:03:45;;;;;;;4.07;2.60;;;28.60;41.40;;;;;;5065608;28;20024;-78
2022/06/02 08:06:35;;;;;;;6.18;2.72;;;28.10;41.40;;;;;;5066079;28;20098;-77
2022/06/02 08:09:20;;;;;;;4.13;2.30;;;27.70;42.20;;;;;;5048816;28;20154;-77
2022/06/02 08:12:00;;;;;;;3.88;2.65;;;27.20;42.80;;;;;;5058395;28;20040;-77
2022/06/02 08:14:48;;;;;;;2.90;2.45;;;26.90;43.60;;;;;;5074952;28;20032;-77
2022/06/02 08:17:31;;;;;;;4.05;2.28;;;26.50;43.70;;;;;;5048912;28;20128;-77
2022/06/02 08:20:23;;;;;;;2.88;2.60;;;26.30;44.00;;;;;;5044254;28;20058;-77
2022/06/02 08:23:07;;;;;;;2.35;1.92;;;26.10;44.30;;;;;;5053337;28;20103;-75
2022/06/02 08:25:56;;;;;;;2.17;1.98;;;25.90;44.40;;;;;;5057473;28;20306;-76
2022/06/02 08:28:56;;;;;;;2.47;1.85;;;25.80;44.50;;;;;;5062899;28;20400;-76
2022/06/02 08:31:40;;;;;;;3.30;1.98;;;25.70;44.40;;;;;;5063344;28;20025;-76
2022/06/02 08:34:47;;;;;;;2.70;1.83;;;25.60;44.30;;;;;;5062654;28;20040;-76
2022/06/02 08:37:21;;;;;;;2.15;1.73;;;25.60;44.20;;;;;;5058013;28;20130;-76
2022/06/02 08:40:23;;;;;;;3.30;1.88;;;25.60;44.30;;;;;;5048313;28;20509;-77
2022/06/02 08:43:21;;;;;;;1.50;1.40;;;25.60;44.10;;;;;;5051732;28;20053;-76
2022/06/02 08:45:52;;;;;;;3.45;1.85;;;25.60;44.00;;;;;;5069070;28;20072;-76
2022/06/02 08:49:03;;;;;;;2.72;1.67;;;25.60;43.90;;;;;;5078436;28;20430;-76
2022/06/02 08:51:50;;;;;;;1.75;1.50;;;25.60;43.70;;;;;;5061953;28;20394;-75
2022/06/02 08:54:54;;;;;;;1.33;1.05;;;25.80;43.80;;;;;;5064488;28;20489;-76
2022/06/02 08:58:00;;;;;;;2.70;2.00;;;25.80;43.40;;;;;;5073832;28;20060;-76
2022/06/02 09:00:29;;;;;;;2.72;2.35;;;25.90;43.30;;;;;;5065695;28;20036;-77
2022/06/02 09:03:03;;;;;;;3.80;1.50;;;26.10;43.30;;;;;;5081200;28;20040;-75
2022/06/02 09:05:48;;;;;;;3.35;1.85;;;26.20;43.10;;;;;;5054608;28;20040;-75
2022/06/02 09:08:26;;;;;;;2.65;1.65;;;26.20;42.70;;;;;;5091465;28;20024;-76
2022/06/02 09:11:20;;;;;;;2.28;2.08;;;26.40;42.70;;;;;;5088453;28;20040;-75
2022/06/02 09:14:13;;;;;;;3.10;2.63;;;26.40;42.40;;;;;;5065920;28;20060;-75
2022/06/02 09:17:17;;;;;;;2.45;1.83;;;26.40;42.40;;;;;;5067682;28;20059;-76
2022/06/02 09:20:12;;;;;;;2.00;1.80;;;26.30;42.60;;;;;;4979944;28;20114;-76
2022/06/02 09:23:14;;;;;;;3.35;1.85;;;26.30;42.40;;;;;;4968206;28;20129;-78
2022/06/02 09:26:13;;;;;;;3.60;2.00;;;26.40;42.40;;;;;;5035415;28;20036;-78
2022/06/02 09:28:41;;;;;;;1.98;1.70;;;26.50;42.30;;;;;;5010917;28;20063;-79
2022/06/02 09:31:36;;;;;;;1.52;1.42;;;26.60;42.10;;;;;;5061800;28;20040;-77
2022/06/02 09:34:21;;;;;;;1.60;1.45;;;26.70;42.00;;;;;;5043341;28;20029;-78
2022/06/02 09:37:06;;;;;;;1.92;1.58;;;26.90;41.60;;;;;;5048225;28;20075;-77
2022/06/02 09:39:57;;;;;;;1.90;1.20;;;27.10;41.00;;;;;;5061281;28;20033;-76
2022/06/02 09:42:42;;;;;;;1.25;1.15;;;27.20;40.90;;;;;;5052077;28;20554;-75
2022/06/02 09:45:41;;;;;;;2.40;1.50;;;27.20;40.60;;;;;;5067242;28;20028;-75
2022/06/02 09:48:36;;;;;;;1.23;1.13;;;27.40;40.30;;;;;;5048348;28;20110;-75
2022/06/02 09:51:26;;;;;;;1.10;1.00;;;27.60;40.00;;;;;;5064983;28;20044;-75
2022/06/02 09:53:58;;;;;;;2.15;1.20;;;27.90;40.20;;;;;;5053566;28;20040;-77
2022/06/02 09:56:48;;;;;;;3.03;1.00;;;28.20;39.30;;;;;;5044548;28;20108;-77
2022/06/02 09:59:35;;;;;;;2.20;1.10;;;28.40;38.60;;;;;;5058713;28;20278;-76
2022/06/02 10:02:25;;;;;;;3.03;1.00;;;28.70;38.30;;;;;;5048526;28;20513;-75
2022/06/02 10:05:09;;;;;;;1.75;1.00;;;28.80;37.90;;;;;;5055238;28;20587;-75
2022/06/02 10:08:01;;;;;;;1.63;1.10;;;28.70;37.80;;;;;;5064400;28;20161;-75
2022/06/02 10:10:33;;;;;;;1.80;1.05;;;28.70;37.60;;;;;;5044280;28;20186;-75
2022/06/02 10:13:14;;;;;;;2.42;1.17;;;28.70;37.70;;;;;;5047440;28;20126;-75
2022/06/02 10:15:40;;;;;;;2.05;1.23;;;28.80;37.60;;;;;;5056450;28;20048;-76
2022/06/02 10:18:26;;;;;;;2.58;1.25;;;29.00;37.60;;;;;;5074482;28;20485;-75
2022/06/02 10:21:16;;;;;;;1.92;0.90;;;29.10;37.00;;;;;;5064152;28;20101;-76
2022/06/02 10:24:24;;;;;;;1.10;0.80;;;29.10;36.70;;;;;;5040657;28;20037;-77
2022/06/02 10:27:01;;;;;;;2.42;1.10;;;29.10;36.40;;;;;;5032953;28;20124;-76
2022/06/02 10:30:04;;;;;;;0.90;0.90;;;29.20;36.60;;;;;;5059270;28;20064;-77
2022/06/02 10:32:39;;;;;;;;;;;29.20;36.10;;;;;;5048664;28;20446;-77
2022/06/02 10:35:40;;;;;;;2.42;1.02;;;29.10;36.60;;;;;;5057078;28;19919;-77
2022/06/02 10:38:26;;;;;;;2.05;1.08;;;28.80;36.50;;;;;;5026881;28;20120;-76
2022/06/02 10:41:14;;;;;;;2.45;0.95;;;28.30;36.80;;;;;;5045958;28;20094;-77
2022/06/02 10:44:11;;;;;;;1.45;1.10;;;27.80;37.10;;;;;;5046371;28;20583;-77
2022/06/02 10:46:45;;;;;;;1.40;0.95;;;27.50;37.50;;;;;;5058567;28;20399;-76
2022/06/02 10:49:36;;;;;;;2.35;1.20;;;27.10;37.90;;;;;;5024634;28;20120;-75
2022/06/02 10:52:34;;;;;;;1.60;1.17;;;26.90;38.00;;;;;;5045743;28;20098;-75
2022/06/02 10:55:41;;;;;;;1.60;1.00;;;26.70;38.30;;;;;;5057055;28;20071;-75
2022/06/02 10:58:37;;;;;;;3.08;1.63;;;26.60;38.60;;;;;;4997606;28;20366;-75
2022/06/02 11:01:27;;;;;;;1.73;1.63;;;26.60;38.60;;;;;;5016912;28;20042;-74
2022/06/02 11:04:21;;;;;;;2.15;1.67;;;26.60;38.60;;;;;;5029225;28;20032;-76
2022/06/02 11:07:34;;;;;;;8.02;1.77;;;26.60;38.70;;;;;;5065014;28;20076;-75
2022/06/02 11:10:19;;;;;;;1.58;1.48;;;26.50;39.00;;;;;;5067540;28;20563;-78
2022/06/02 11:13:13;;;;;;;1.25;1.15;;;26.40;39.20;;;;;;5055415;28;20040;-76
2022/06/02 11:16:02;;;;;;;2.33;1.10;;;26.30;39.40;;;;;;5018214;28;20036;-75
2022/06/02 11:18:33;;;;;;;1.33;1.23;;;26.10;39.30;;;;;;5055265;28;20029;-78
2022/06/02 11:21:13;;;;;;;1.95;1.05;;;26.10;39.50;;;;;;5042042;28;20061;-75
2022/06/02 11:23:48;;;;;;;1.38;1.02;;;26.00;39.50;;;;;;5057353;28;20108;-80
2022/06/02 11:26:39;;;;;;;1.55;1.35;;;25.90;39.70;;;;;;5055985;28;20581;-78
2022/06/02 11:29:26;;;;;;;1.90;1.13;;;25.80;39.90;;;;;;5055369;28;20033;-81
2022/06/02 11:32:19;;;;;;;1.27;1.10;;;25.70;39.90;;;;;;5036506;28;20037;-78
2022/06/02 11:35:16;;;;;;;5.25;1.98;;;25.70;39.90;;;;;;5074614;28;20474;-77
2022/06/02 11:38:07;;;;;;;1.33;1.20;;;25.60;39.80;;;;;;5047246;28;20431;-77
2022/06/02 11:40:46;;;;;;;1.80;1.30;;;25.60;39.70;;;;;;5034591;28;20032;-76
2022/06/02 11:43:27;;;;;;;1.45;1.00;;;25.50;39.80;;;;;;5067702;28;20491;-75
2022/06/02 11:46:11;;;;;;;2.78;0.93;;;25.40;39.80;;;;;;5068690;28;20103;-80
2022/06/02 11:49:14;;;;;;;1.25;1.10;;;25.30;40.00;;;;;;5068706;28;20095;-78
2022/06/02 11:51:54;;;;;;;2.05;1.20;;;25.40;40.30;;;;;;5026076;28;20078;-78
2022/06/02 11:54:29;;;;;;;3.22;1.52;;;25.90;40.00;;;;;;5056879;28;20056;-78
2022/06/02 11:57:23;;;;;;;1.30;1.20;;;26.20;39.80;;;;;;5026220;28;20633;-79
2022/06/02 12:00:11;;;;;;;1.83;1.33;;;26.20;39.60;;;;;;5054414;28;20037;-81
2022/06/02 12:02:55;;;;;;;1.75;1.20;;;26.10;39.50;;;;;;5064849;28;20038;-80
2022/06/02 12:05:45;;;;;;;1.15;0.93;;;26.00;39.60;;;;;;5087952;28;20028;-79
2022/06/02 12:08:50;;;;;;;1.98;1.02;;;25.90;39.90;;;;;;5068682;28;20077;-81
2022/06/02 12:11:38;;;;;;;3.30;1.30;;;25.80;39.90;;;;;;5061101;28;20040;-81
2022/06/02 12:14:28;;;;;;;2.72;1.30;;;25.80;40.00;;;;;;5066115;28;20052;-80
2022/06/02 12:17:23;;;;;;;1.65;1.20;;;25.90;39.80;;;;;;5071949;28;20773;-83
2022/06/02 12:20:27;;;;;;;1.50;1.20;;;26.10;39.80;;;;;;5036861;28;20358;-79
2022/06/02 12:22:59;;;;;;;;;;;26.10;39.80;;;;;;5050352;28;20027;-80
2022/06/02 12:25:46;;;;;;;2.50;1.20;;;26.00;39.90;;;;;;5075820;28;20286;-80
2022/06/02 12:28:21;;;;;;;1.67;1.10;;;25.90;40.00;;;;;;5057092;28;20044;-96
2022/06/02 12:30:50;;;;;;;5.85;1.50;;;25.70;40.20;;;;;;5052795;28;20124;-79
2022/06/02 12:33:48;;;;;;;1.80;1.50;;;25.90;40.20;;;;;;5057545;28;20159;-77
2022/06/02 12:36:32;;;;;;;1.95;1.25;;;26.60;39.70;;;;;;5049256;28;20096;-80
2022/06/02 12:39:19;;;;;;;4.10;1.52;;;27.20;39.10;;;;;;5054441;28;20036;-79
2022/06/02 12:42:23;;;;;;;1.25;1.15;;;27.90;38.90;;;;;;5054735;28;20507;-78
2022/06/02 12:45:18;;;;;;;1.83;1.00;;;28.50;38.10;;;;;;5036462;28;20054;-85
2022/06/02 12:47:53;;;;;;;1.48;1.20;;;29.10;37.60;;;;;;5071563;28;20067;-80
2022/06/02 12:50:36;;;;;;;1.13;0.60;;;29.50;37.50;;;;;;5067533;28;20037;-81
2022/06/02 12:53:20;;;;;;;1.52;0.77;;;29.80;37.20;;;;;;5049507;28;20024;-81
2022/06/02 12:56:04;;;;;;;0.70;0.70;;;30.10;37.10;;;;;;5067201;28;20302;-82
2022/06/02 12:58:50;;;;;;;1.25;0.85;;;30.20;36.40;;;;;;5067678;28;20043;-81
2022/06/02 13:01:26;;;;;;;1.25;0.90;;;30.00;36.50;;;;;;5057773;28;20601;-82
2022/06/02 13:04:43;;;;;;;1.52;0.80;;;29.50;36.70;;;;;;5044247;28;20060;-82
2022/06/02 13:07:31;;;;;;;1.40;0.80;;;28.90;36.80;;;;;;5023393;28;20048;-81
2022/06/02 13:10:06;;;;;;;3.00;1.25;;;28.40;37.30;;;;;;5056596;28;20024;-81
2022/06/02 13:13:05;;;;;;;2.95;0.70;;;28.10;37.70;;;;;;5048076;28;20131;-81
2022/06/02 13:16:00;;;;;;;1.20;0.75;;;27.70;37.80;;;;;;5053941;28;20089;-79
2022/06/02 13:18:38;;;;;;;1.85;0.93;;;27.40;38.00;;;;;;5048587;28;20524;-78
2022/06/02 13:21:35;;;;;;;1.80;0.70;;;27.20;38.20;;;;;;5058685;28;20515;-79
2022/06/02 13:24:23;;;;;;;0.65;0.65;;;27.10;38.20;;;;;;5053742;28;20036;-79
2022/06/02 13:27:07;;;;;;;0.57;0.57;;;27.30;38.10;;;;;;5046896;28;20036;-78
2022/06/02 13:30:16;;;;;;;1.17;0.90;;;27.60;37.80;;;;;;5055611;28;20063;-79
2022/06/02 13:33:23;;;;;;;1.70;0.60;;;27.60;37.40;;;;;;5060390;28;20491;-81
2022/06/02 13:36:26;;;;;;;1.70;0.80;;;27.60;37.20;;;;;;5058469;28;20485;-78
2022/06/02 13:39:07;;;;;;;2.72;0.60;;;27.50;37.20;;;;;;5055231;28;20040;-75
2022/06/02 13:42:21;;;;;;;0.95;0.68;;;27.40;37.60;;;;;;5051769;28;20028;-76
2022/06/02 13:44:55;;;;;;;3.05;0.70;;;27.20;37.20;;;;;;5016913;28;20090;-81
2022/06/02 13:47:57;;;;;;;0.88;0.60;;;27.00;37.40;;;;;;5045534;28;20055;-77
2022/06/02 13:50:41;;;;;;;0.60;0.60;;;27.20;37.50;;;;;;5060730;28;20812;-77
2022/06/02 13:59:58;;;;;;;0.63;0.63;;;28.20;36.40;;;;;;5057752;28;20472;-79
2022/06/02 14:02:40;;;;;;;1.40;0.55;;;28.50;36.20;;;;;;5061473;28;20388;-78
2022/06/02 14:05:44;;;;;;;0.70;0.60;;;29.00;35.70;;;;;;5052223;28;20040;-82
2022/06/02 14:08:35;;;;;;;3.95;0.65;;;29.60;35.00;;;;;;5054676;28;20526;-77
2022/06/02 14:11:29;;;;;;;0.60;0.50;;;30.20;34.30;;;;;;5054456;28;20390;-76
2022/06/02 14:14:25;;;;;;;1.15;0.73;;;30.80;33.90;;;;;;5042551;28;20855;-78
2022/06/02 14:17:19;;;;;;;0.90;0.60;;;31.20;33.20;;;;;;5059619;28;20432;-78
2022/06/02 14:19:57;;;;;;;0.50;0.30;;;31.60;33.10;;;;;;5058094;28;20508;-83
2022/06/02 14:22:30;;;;;;;1.15;0.52;;;31.90;32.70;;;;;;5055799;28;20033;-81
2022/06/02 14:25:06;;;;;;;2.08;0.30;;;32.20;32.50;;;;;;5051986;28;20036;-84
2022/06/02 14:28:15;;;;;;;1.08;0.40;;;32.50;31.80;;;;;;5064649;28;20144;-82
2022/06/02 14:30:56;;;;;;;0.52;0.40;;;32.60;31.20;;;;;;5018073;28;20028;-80
2022/06/02 14:33:35;;;;;;;0.85;0.50;;;32.50;31.40;;;;;;5050449;28;20563;-80
2022/06/02 14:36:19;;;;;;;0.70;0.40;;;32.10;31.50;;;;;;5061204;28;20035;-82
2022/06/02 14:38:45;;;;;;;2.35;0.70;;;31.60;31.60;;;;;;5063954;28;20036;-85
2022/06/02 14:41:14;;;;;;;2.15;0.50;;;31.20;32.10;;;;;;5057937;28;20598;-83
2022/06/02 14:43:51;;;;;;;3.15;0.80;;;30.90;32.50;;;;;;5063812;28;20036;-80